aviador You're here:

OIAW Decoded Metar

AHWAZ in IRAN
Report Time2017-08-16 18:50:00
UTC Time2017-08-16 19:33:06
Flight Rules ifr IFR
Wind170° at 08 kt
W.Decomp.*RWY 12: 5.5 kt HW 5.9 kt RCW
W.Rank170° ranks 14
Current wind is above 170° avg. (6.2)
Visibility2500 m
Phenomena:Haze
Clouds:N/A
Expected CloudBase > 4,000 ft AGL from Temp-Dew spread
CeilingNone
Temp38°C (ISA +23)
Dew Point28°C (57% RH)
Heat Index52.9°C
QNH1000 hPa
Density Alt3,612 ft
Elevation72 ft
Report Wrong Elevation
Raw Report
METAR OIAW 161850Z 17008KT 2500 HZ NSC 38/28 Q1000=

Extra information for OIAW:More info

Metar Taf Metar & Taf Last 4 Metars F.Rules Stats Wind Profile Meteogram Temp Stats Airport Information Weather charts Add Link Nearby VenuesMetar ALERT Operation Metar Decoded Social comments